Terminal Aerodrome Forecast
Issued by NWS

Home | Current Version | Previous Version | Text Only | Print | Product List | Glossary On
Versions: 1 2 3 4 5 6 7 8 9 10 11 12 13 14 15 16 17 18 19 20 21 22 23 24 25 26 27 28 29 30 31 32 33 34
000
FTAK31 PAFA 220536
TAFAGA
TAF
PAGA 220536Z 2206/2306 12013KT 3SM -SN BR SCT008 BKN015 OVC020
     FM220800 16010KT 1 1/2SM -SN BR BKN007 OVC020
     FM221800 23017G22KT 1/2SM -SN FZFG BLSN OVC007
     FM230100 25025G32KT 1/2SM -SN FZFG BLSN OVC007
     FM230400 25017G24KT 1 1/2SM -SN BR BKN007 OVC015=

USA.gov is the U.S. government's official web portal to all federal, state and local government web resources and services.